Pagina principală
METAR-TAF:

METAR-TAF

Aeroporturi :

Weatherford, Oklahoma, Statele Unite ale Americii

Latitudine: 35-32-45N, longitudine: 098-40-07W, elevație: 489 m

Observații meteo curente

Raportul a fost făcut în urmă cu 17 de minute, la 21:15 UTC
Vânt 11 kt de la Sud/Sud-vest cu rafale de până la 20 kt
Temperatură 37°C
Umiditate 31%
Presiune 1014 hPa
Vizibilitate: 16.1 km
Nori împrăștiați la o înălțime de 7500 picior

METAR: KOJA 222115Z AUTO 20011G20KT 10SM SCT075 37/17 A2995 RMK AO2 T03660173

Ora: 16:32 (21:32 UTC)


TAF: lipsă

Observații și prognoze meteo pentru peste 4.000 de aeroporturi (rapoarte METAR și TAF).

Stațiile disponibile sunt reprezentate pe hartă prin puncte galbene și roșii.

Țineți indicatorul mouse-ului pe punctul dorit pentru a vedea denumirea stației.

Apoi, faceți clic pentru a vedea observațiile și prognozele meteorologice.

Pentru a schimba harta: Pentru mărire, faceți clic pe butoanele verzi cu cruce neagră; pentru micșorare, pe butonul verde cu o liniuță; pentru hărți învecinate, pe săgețile verzi.


METAR-TAF: